createdAt,value
2017-01-22T00:00:38.397Z,27.9
2017-01-22T00:01:40.054Z,27.9
2017-01-22T00:02:38.610Z,27.9
2017-01-22T00:03:40.251Z,27.9
2017-01-22T00:04:40.452Z,27.9
2017-01-22T00:05:39.157Z,27.9
2017-01-22T00:06:40.262Z,27.9
2017-01-22T00:07:40.347Z,27.9
2017-01-22T00:08:41.425Z,27.9
2017-01-22T00:09:38.868Z,27.9
2017-01-22T00:10:40.724Z,27.9
2017-01-22T00:11:38.883Z,27.9
2017-01-22T00:12:40.534Z,27.9
2017-01-22T00:13:41.204Z,27.9
2017-01-22T00:14:41.885Z,27.9
2017-01-22T00:15:39.792Z,27.9
2017-01-22T00:16:38.994Z,27.9
2017-01-22T00:17:39.639Z,27.9
2017-01-22T00:18:39.148Z,27.9
2017-01-22T00:19:39.212Z,27.9
2017-01-22T00:20:40.806Z,27.9
2017-01-22T00:21:40.852Z,27.9
2017-01-22T00:22:40.037Z,27.9
2017-01-22T00:23:40.976Z,27.9
2017-01-22T00:24:41.124Z,27.9
2017-01-22T00:25:41.066Z,27.9
2017-01-22T00:26:41.125Z,27.9
2017-01-22T00:27:39.628Z,27.9
2017-01-22T00:28:39.719Z,27.9
2017-01-22T00:29:41.453Z,27.9
2017-01-22T00:30:41.463Z,27.8
2017-01-22T00:31:39.930Z,27.8
2017-01-22T00:32:41.417Z,27.8
2017-01-22T00:33:39.869Z,27.8
2017-01-22T00:34:41.496Z,27.8
2017-01-22T00:35:40.679Z,27.8
2017-01-22T00:36:40.131Z,27.8
2017-01-22T00:37:40.033Z,27.8
2017-01-22T00:38:41.812Z,27.8
2017-01-22T00:39:41.770Z,27.8
2017-01-22T00:40:42.606Z,27.9
2017-01-22T00:41:41.985Z,27.9
2017-01-22T00:42:40.434Z,27.9
2017-01-22T00:43:41.982Z,27.8
2017-01-22T00:44:42.889Z,27.8
2017-01-22T00:45:40.639Z,27.8
2017-01-22T00:46:42.955Z,27.9
2017-01-22T00:47:40.631Z,27.8
2017-01-22T00:48:40.836Z,27.8
2017-01-22T00:49:45.392Z,27.9
2017-01-22T00:50:40.972Z,27.9
2017-01-22T00:51:42.610Z,27.9
2017-01-22T00:52:40.935Z,27.9
2017-01-22T00:53:41.934Z,27.9
2017-01-22T00:54:40.974Z,27.9
2017-01-22T00:55:41.068Z,27.9
2017-01-22T00:56:41.150Z,27.9
2017-01-22T00:57:41.235Z,27.9
2017-01-22T00:58:42.980Z,27.9
2017-01-22T00:59:42.841Z,27.9
2017-01-22T01:00:41.512Z,27.9
2017-01-22T01:01:43.089Z,27.9
2017-01-22T01:02:41.508Z,27.9
2017-01-22T01:03:41.525Z,27.9
2017-01-22T01:04:43.202Z,27.9
2017-01-22T01:05:43.387Z,27.9
2017-01-22T01:06:43.401Z,27.9
2017-01-22T01:07:41.779Z,27.9
2017-01-22T01:08:43.741Z,27.9
2017-01-22T01:09:43.564Z,27.9
2017-01-22T01:10:43.622Z,27.9
2017-01-22T01:11:43.629Z,27.9
2017-01-22T01:12:42.169Z,27.9
2017-01-22T01:13:42.760Z,27.9
2017-01-22T01:14:42.125Z,27.9
2017-01-22T01:15:43.817Z,27.9
2017-01-22T01:16:43.931Z,27.9
2017-01-22T01:17:43.818Z,27.9
2017-01-22T01:18:44.038Z,27.9
2017-01-22T01:19:44.091Z,27.9
2017-01-22T01:20:42.452Z,27.9
2017-01-22T01:21:44.033Z,27.9
2017-01-22T01:22:44.115Z,27.9
2017-01-22T01:23:42.518Z,27.9
2017-01-22T01:24:44.197Z,27.9
2017-01-22T01:25:42.716Z,27.9
2017-01-22T01:26:45.002Z,27.9
2017-01-22T01:27:44.329Z,27.8
2017-01-22T01:28:42.938Z,27.8
2017-01-22T01:29:44.488Z,27.8
2017-01-22T01:30:43.067Z,27.8
2017-01-22T01:31:44.647Z,27.9
2017-01-22T01:32:44.637Z,27.9
2017-01-22T01:33:43.085Z,27.9
2017-01-22T01:34:43.068Z,27.9
2017-01-22T01:35:43.065Z,27.8
2017-01-22T01:36:44.867Z,27.9
2017-01-22T01:37:44.858Z,27.9
2017-01-22T01:38:43.432Z,27.8
2017-01-22T01:39:43.362Z,27.8
2017-01-22T01:40:45.066Z,27.8
2017-01-22T01:41:45.102Z,27.8
2017-01-22T01:42:43.585Z,27.8
2017-01-22T01:43:44.226Z,27.8
2017-01-22T01:44:43.600Z,27.8
2017-01-22T01:45:45.632Z,27.8
2017-01-22T01:46:44.152Z,27.8
2017-01-22T01:47:45.159Z,27.8
2017-01-22T01:48:45.207Z,27.8
2017-01-22T01:49:43.799Z,27.8
2017-01-22T01:50:46.050Z,27.8
2017-01-22T01:51:45.435Z,27.8
2017-01-22T01:52:45.057Z,27.8
2017-01-22T01:53:45.516Z,27.8
2017-01-22T01:54:44.024Z,27.8
2017-01-22T01:55:45.559Z,27.8
2017-01-22T01:56:45.737Z,27.8
2017-01-22T01:57:45.674Z,27.8
2017-01-22T01:58:44.221Z,27.8
2017-01-22T01:59:45.092Z,27.8
2017-01-22T02:00:45.955Z,27.8
2017-01-22T02:01:45.083Z,27.8
2017-01-22T02:02:44.488Z,27.8
2017-01-22T02:03:46.186Z,27.8
2017-01-22T02:04:46.278Z,27.8
2017-01-22T02:05:46.190Z,27.8
2017-01-22T02:06:46.339Z,27.8
2017-01-22T02:07:46.210Z,27.8
2017-01-22T02:08:44.836Z,27.8
2017-01-22T02:09:44.853Z,27.8
2017-01-22T02:10:46.394Z,27.8
2017-01-22T02:11:46.398Z,27.8
2017-01-22T02:12:44.985Z,27.8
2017-01-22T02:13:45.042Z,27.8
2017-01-22T02:14:46.649Z,27.8
2017-01-22T02:15:44.936Z,27.8
2017-01-22T02:16:45.019Z,27.8
2017-01-22T02:17:46.891Z,27.8
2017-01-22T02:18:45.245Z,27.8
2017-01-22T02:19:46.814Z,27.8
2017-01-22T02:20:45.966Z,27.8
2017-01-22T02:21:47.316Z,27.8
2017-01-22T02:22:45.162Z,27.8
2017-01-22T02:23:45.225Z,27.8
2017-01-22T02:24:45.488Z,27.8
2017-01-22T02:25:46.042Z,27.8
2017-01-22T02:26:45.415Z,27.8
2017-01-22T02:27:46.296Z,27.7
2017-01-22T02:28:45.468Z,27.8
2017-01-22T02:29:47.147Z,27.8
2017-01-22T02:30:47.360Z,27.8
2017-01-22T02:31:45.755Z,27.8
2017-01-22T02:32:47.175Z,27.8
2017-01-22T02:33:47.404Z,27.8
2017-01-22T02:34:47.348Z,27.8
2017-01-22T02:35:46.526Z,27.7
2017-01-22T02:36:45.729Z,27.8
2017-01-22T02:37:45.884Z,27.8
2017-01-22T02:38:47.492Z,27.8
2017-01-22T02:39:47.803Z,27.7
2017-01-22T02:40:45.940Z,27.7
2017-01-22T02:41:47.750Z,27.8
2017-01-22T02:42:47.709Z,27.7
2017-01-22T02:43:47.909Z,27.7
2017-01-22T02:44:46.435Z,27.7
2017-01-22T02:45:46.831Z,27.7
2017-01-22T02:46:46.476Z,27.8
2017-01-22T02:47:46.654Z,27.7
2017-01-22T02:48:48.146Z,27.8
2017-01-22T02:49:46.804Z,27.8
2017-01-22T02:50:48.284Z,27.8
2017-01-22T02:51:46.788Z,27.7
2017-01-22T02:52:46.861Z,27.8
2017-01-22T02:53:46.958Z,27.8
2017-01-22T02:54:48.567Z,27.7
2017-01-22T02:55:47.007Z,27.8
2017-01-22T02:56:48.729Z,27.8
2017-01-22T02:57:46.981Z,27.7
2017-01-22T02:58:48.767Z,27.7
2017-01-22T02:59:48.830Z,27.7
2017-01-22T03:00:48.889Z,27.7
2017-01-22T03:01:47.212Z,27.8
2017-01-22T03:02:49.511Z,27.8
2017-01-22T03:03:47.447Z,27.7
2017-01-22T03:04:47.530Z,27.8
2017-01-22T03:05:48.196Z,27.8
2017-01-22T03:06:49.162Z,27.8
2017-01-22T03:07:47.606Z,27.8
2017-01-22T03:08:47.583Z,27.7
2017-01-22T03:09:49.362Z,27.7
2017-01-22T03:10:47.962Z,27.7
2017-01-22T03:11:47.825Z,27.7
2017-01-22T03:12:47.936Z,27.7
2017-01-22T03:13:49.456Z,27.7
2017-01-22T03:14:49.491Z,27.7
2017-01-22T03:15:47.931Z,27.7
2017-01-22T03:16:48.738Z,27.7
2017-01-22T03:17:47.883Z,27.7
2017-01-22T03:18:48.011Z,27.7
2017-01-22T03:19:49.699Z,27.7
2017-01-22T03:20:48.227Z,27.7
2017-01-22T03:21:48.293Z,27.7
2017-01-22T03:22:49.928Z,27.7
2017-01-22T03:23:50.295Z,27.7
2017-01-22T03:24:48.381Z,27.7
2017-01-22T03:25:50.598Z,27.7
2017-01-22T03:28:59.605Z,27.7
2017-01-22T03:29:59.718Z,27.6
2017-01-22T03:30:59.597Z,27.6
2017-01-22T03:31:58.200Z,27.6
2017-01-22T03:32:58.167Z,27.6
2017-01-22T03:33:58.144Z,27.7
2017-01-22T03:34:58.361Z,27.7
2017-01-22T03:35:59.896Z,27.7
2017-01-22T03:36:59.860Z,27.6
2017-01-22T03:37:59.222Z,27.7
2017-01-22T03:38:58.534Z,27.7
2017-01-22T03:39:58.600Z,27.7
2017-01-22T03:41:00.178Z,27.7
2017-01-22T03:42:00.225Z,27.7
2017-01-22T03:43:00.134Z,27.7
2017-01-22T03:44:00.401Z,27.7
2017-01-22T03:45:00.257Z,27.7
2017-01-22T03:45:58.832Z,27.7
2017-01-22T03:46:59.435Z,27.7
2017-01-22T03:47:58.968Z,27.7
2017-01-22T03:49:01.143Z,27.7
2017-01-22T03:49:59.017Z,27.6
2017-01-22T03:50:59.167Z,27.7
2017-01-22T03:51:59.259Z,27.6
2017-01-22T03:53:00.880Z,27.7
2017-01-22T03:53:59.887Z,27.7
2017-01-22T03:55:00.913Z,27.7
2017-01-22T03:56:01.042Z,27.7
2017-01-22T03:57:01.002Z,27.7
2017-01-22T03:57:59.481Z,27.7
2017-01-22T03:58:59.596Z,27.7
2017-01-22T04:00:01.379Z,27.7
2017-01-22T04:01:01.845Z,27.7
2017-01-22T04:02:01.174Z,27.7
2017-01-22T04:02:59.873Z,27.7
2017-01-22T04:03:59.857Z,27.7
2017-01-22T04:04:59.924Z,27.7
2017-01-22T04:05:59.854Z,27.7
2017-01-22T04:06:59.916Z,27.7
2017-01-22T04:07:59.964Z,27.7
2017-01-22T04:09:01.598Z,27.7
2017-01-22T04:10:01.602Z,27.7
2017-01-22T04:11:01.779Z,27.7
2017-01-22T04:12:00.222Z,27.7
2017-01-22T04:13:01.054Z,27.7
2017-01-22T04:14:00.407Z,27.7
2017-01-22T04:15:02.044Z,27.6
2017-01-22T04:16:02.013Z,27.6
2017-01-22T04:17:00.468Z,27.7
2017-01-22T04:18:02.700Z,27.7
2017-01-22T04:19:00.573Z,27.7
2017-01-22T04:20:02.293Z,27.6
2017-01-22T04:21:00.904Z,27.7
2017-01-22T04:22:02.561Z,27.7
2017-01-22T04:23:02.631Z,27.7
2017-01-22T04:24:01.040Z,27.7
2017-01-22T04:25:02.570Z,27.7
2017-01-22T04:26:01.037Z,27.6
2017-01-22T04:27:02.821Z,27.6
2017-01-22T04:28:01.100Z,27.6
2017-01-22T04:29:01.158Z,27.6
2017-01-22T04:30:02.786Z,27.7
2017-01-22T04:31:01.285Z,27.7
2017-01-22T04:32:03.049Z,27.7
2017-01-22T04:33:01.478Z,27.7
2017-01-22T04:34:03.808Z,27.7
2017-01-22T04:35:01.592Z,27.6
2017-01-22T04:36:01.690Z,27.6
2017-01-22T04:37:03.261Z,27.6
2017-01-22T04:38:01.590Z,27.7
2017-01-22T04:39:02.183Z,27.6
2017-01-22T04:40:03.484Z,27.6
2017-01-22T04:41:01.754Z,27.6
2017-01-22T04:42:03.564Z,27.6
2017-01-22T04:43:01.980Z,27.6
2017-01-22T04:44:01.986Z,27.6
2017-01-22T04:45:03.638Z,27.6
2017-01-22T04:46:03.733Z,27.6
2017-01-22T04:47:03.945Z,27.6
2017-01-22T04:48:02.302Z,27.6
2017-01-22T04:49:02.433Z,27.7
2017-01-22T04:50:03.890Z,27.7
2017-01-22T04:51:04.042Z,27.7
2017-01-22T04:52:04.807Z,27.7
2017-01-22T04:53:02.619Z,27.6
2017-01-22T04:54:02.764Z,27.6
2017-01-22T04:55:04.146Z,27.6
2017-01-22T04:56:02.789Z,27.6
2017-01-22T04:57:04.426Z,27.6
2017-01-22T04:58:02.739Z,27.6
2017-01-22T04:59:02.915Z,27.6
2017-01-22T05:00:04.396Z,27.6
2017-01-22T05:01:02.863Z,27.6
2017-01-22T05:02:03.041Z,27.6
2017-01-22T05:03:05.505Z,27.6
2017-01-22T05:04:04.618Z,27.6
2017-01-22T05:05:04.816Z,27.6
2017-01-22T05:06:03.228Z,27.6
2017-01-22T05:07:04.878Z,27.6
2017-01-22T05:08:05.798Z,27.6
2017-01-22T05:09:03.349Z,27.6
2017-01-22T05:10:04.861Z,27.6
2017-01-22T05:11:03.305Z,27.6
2017-01-22T05:12:03.621Z,27.6
2017-01-22T05:13:04.976Z,27.6
2017-01-22T05:14:05.611Z,27.6
2017-01-22T05:15:05.079Z,27.6
2017-01-22T05:16:03.458Z,27.6
2017-01-22T05:17:05.277Z,27.6
2017-01-22T05:18:05.193Z,27.6
2017-01-22T05:19:05.257Z,27.6
2017-01-22T05:20:03.674Z,27.6
2017-01-22T05:21:05.366Z,27.6
2017-01-22T05:22:07.206Z,27.6
2017-01-22T05:23:03.702Z,27.6
2017-01-22T05:24:05.338Z,27.6
2017-01-22T05:25:05.478Z,27.6
2017-01-22T05:26:05.597Z,27.6
2017-01-22T05:27:04.061Z,27.6
2017-01-22T05:28:05.793Z,27.6
2017-01-22T05:29:04.932Z,27.6
2017-01-22T05:30:05.730Z,27.6
2017-01-22T05:31:05.770Z,27.6
2017-01-22T05:32:04.219Z,27.6
2017-01-22T05:33:05.894Z,27.6
2017-01-22T05:34:05.921Z,27.6
2017-01-22T05:35:04.607Z,27.6
2017-01-22T05:36:06.530Z,27.6
2017-01-22T05:37:04.582Z,27.6
2017-01-22T05:38:05.228Z,27.6
2017-01-22T05:39:06.358Z,27.6
2017-01-22T05:40:06.290Z,27.6
2017-01-22T05:41:04.770Z,27.6
2017-01-22T05:42:06.878Z,27.6
2017-01-22T05:43:06.646Z,27.6
2017-01-22T05:44:05.232Z,27.5
2017-01-22T05:45:05.064Z,27.5
2017-01-22T05:46:06.630Z,27.5
2017-01-22T05:47:06.875Z,27.6
2017-01-22T05:48:07.458Z,27.5
2017-01-22T05:49:06.784Z,27.5
2017-01-22T05:50:05.261Z,27.6
2017-01-22T05:51:05.367Z,27.6
2017-01-22T05:52:05.497Z,27.6
2017-01-22T05:53:07.005Z,27.6
2017-01-22T05:54:05.455Z,27.6
2017-01-22T05:55:07.213Z,27.6
2017-01-22T05:56:05.640Z,27.6
2017-01-22T05:57:05.571Z,27.6
2017-01-22T05:58:07.264Z,27.6
2017-01-22T05:59:05.798Z,27.6
2017-01-22T06:00:06.460Z,27.5
2017-01-22T06:01:05.693Z,27.5
2017-01-22T06:02:07.997Z,27.6
2017-01-22T06:03:06.480Z,27.6
2017-01-22T06:04:07.525Z,27.5
2017-01-22T06:05:08.327Z,27.6
2017-01-22T06:06:07.719Z,27.6
2017-01-22T06:07:06.222Z,27.6
2017-01-22T06:08:07.897Z,27.5
2017-01-22T06:09:06.412Z,27.5
2017-01-22T06:10:08.134Z,27.5
2017-01-22T06:11:06.387Z,27.5
2017-01-22T06:12:06.599Z,27.5
2017-01-22T06:13:08.237Z,27.5
2017-01-22T06:14:08.200Z,27.5
2017-01-22T06:15:06.747Z,27.5
2017-01-22T06:16:06.663Z,27.5
2017-01-22T06:17:08.397Z,27.5
2017-01-22T06:18:06.827Z,27.5
2017-01-22T06:19:06.860Z,27.5
2017-01-22T06:20:08.454Z,27.5
2017-01-22T06:21:07.607Z,27.5
2017-01-22T06:22:08.492Z,27.5
2017-01-22T06:23:06.798Z,27.5
2017-01-22T06:24:07.062Z,27.5
2017-01-22T06:25:08.642Z,27.5
2017-01-22T06:26:07.139Z,27.5
2017-01-22T06:27:07.086Z,27.5
2017-01-22T06:28:07.278Z,27.5
2017-01-22T06:29:07.235Z,27.5
2017-01-22T06:30:09.016Z,27.5
2017-01-22T06:31:09.012Z,27.5
2017-01-22T06:32:07.498Z,27.5
2017-01-22T06:33:07.400Z,27.5
2017-01-22T06:34:09.072Z,27.5
2017-01-22T06:35:09.177Z,27.5
2017-01-22T06:36:09.328Z,27.5
2017-01-22T06:37:09.268Z,27.5
2017-01-22T06:38:09.366Z,27.5
2017-01-22T06:39:07.773Z,27.5
2017-01-22T06:40:07.747Z,27.5
2017-01-22T06:41:09.514Z,27.5
2017-01-22T06:42:07.908Z,27.5
2017-01-22T06:43:07.970Z,27.5
2017-01-22T06:44:09.662Z,27.5
2017-01-22T06:45:11.160Z,27.5
2017-01-22T06:46:08.186Z,27.5
2017-01-22T06:47:08.309Z,27.5
2017-01-22T06:48:09.947Z,27.5
2017-01-22T06:49:08.897Z,27.5
2017-01-22T06:50:10.025Z,27.5
2017-01-22T06:51:08.459Z,27.5
2017-01-22T06:52:10.827Z,27.5
2017-01-22T06:53:08.518Z,27.5
2017-01-22T06:54:10.304Z,27.5
2017-01-22T06:55:08.671Z,27.5
2017-01-22T06:56:10.987Z,27.5
2017-01-22T06:57:10.413Z,27.5
2017-01-22T06:58:10.562Z,27.5
2017-01-22T06:59:08.988Z,27.5
2017-01-22T07:00:09.048Z,27.5
2017-01-22T07:01:10.555Z,27.5
2017-01-22T07:02:10.755Z,27.5
2017-01-22T07:03:09.052Z,27.5
2017-01-22T07:04:09.066Z,27.5
2017-01-22T07:05:09.249Z,27.5
2017-01-22T07:06:09.263Z,27.5
2017-01-22T07:07:09.307Z,27.5
2017-01-22T07:08:09.491Z,27.5
2017-01-22T07:09:09.435Z,27.5
2017-01-22T07:10:10.952Z,27.5
2017-01-22T07:11:11.310Z,27.5
2017-01-22T07:12:11.729Z,27.5
2017-01-22T07:13:09.783Z,27.5
2017-01-22T07:14:09.629Z,27.5
2017-01-22T07:15:10.361Z,27.5
2017-01-22T07:16:10.507Z,27.5
2017-01-22T07:17:11.959Z,27.5
2017-01-22T07:18:11.455Z,27.5
2017-01-22T07:19:09.873Z,27.5
2017-01-22T07:20:10.036Z,27.5
2017-01-22T07:21:10.058Z,27.5
2017-01-22T07:22:11.528Z,27.5
2017-01-22T07:23:11.596Z,27.5
2017-01-22T07:24:10.048Z,27.5
2017-01-22T07:25:11.806Z,27.5
2017-01-22T07:26:10.168Z,27.5
2017-01-22T07:27:10.172Z,27.5
2017-01-22T07:28:10.161Z,27.5
2017-01-22T07:29:10.142Z,27.5
2017-01-22T07:30:10.298Z,27.5
2017-01-22T07:31:10.310Z,27.5
2017-01-22T07:32:10.818Z,27.5
2017-01-22T07:33:10.307Z,27.5
2017-01-22T07:34:11.874Z,27.5
2017-01-22T07:35:11.972Z,27.5
2017-01-22T07:36:12.061Z,27.5
2017-01-22T07:37:10.417Z,27.5
2017-01-22T07:38:12.777Z,27.5
2017-01-22T07:39:12.237Z,27.5
2017-01-22T07:40:10.637Z,27.6
2017-01-22T07:41:10.603Z,27.6
2017-01-22T07:42:10.816Z,27.6
2017-01-22T07:43:10.778Z,27.6
2017-01-22T07:44:10.905Z,27.6
2017-01-22T07:45:12.503Z,27.6
2017-01-22T07:46:12.498Z,27.6
2017-01-22T07:47:10.963Z,27.6
2017-01-22T07:48:11.692Z,27.7
2017-01-22T07:49:13.990Z,27.7
2017-01-22T07:50:12.762Z,27.7
2017-01-22T07:51:11.101Z,27.8
2017-01-22T07:52:11.193Z,27.8
2017-01-22T07:53:11.425Z,27.8
2017-01-22T07:54:11.500Z,27.9
2017-01-22T07:55:11.576Z,27.9
2017-01-22T07:56:12.125Z,27.9
2017-01-22T07:57:11.695Z,27.9
2017-01-22T07:58:11.725Z,28
2017-01-22T07:59:13.417Z,27.9
2017-01-22T08:00:11.777Z,28
2017-01-22T08:01:13.495Z,28
2017-01-22T08:02:13.454Z,28
2017-01-22T08:03:13.603Z,28.1
2017-01-22T08:04:11.939Z,28.1
2017-01-22T08:05:12.171Z,28.1
2017-01-22T08:06:12.317Z,28.2
2017-01-22T08:07:13.845Z,28.2
2017-01-22T08:08:13.965Z,28.2
2017-01-22T08:09:12.310Z,28.2
2017-01-22T08:10:12.619Z,28.3
2017-01-22T08:11:12.481Z,28.3
2017-01-22T08:12:14.124Z,28.3
2017-01-22T08:13:14.141Z,28.3
2017-01-22T08:14:14.172Z,28.3
2017-01-22T08:15:14.424Z,28.3
2017-01-22T08:16:14.312Z,28.4
2017-01-22T08:17:12.819Z,28.4
2017-01-22T08:18:12.892Z,28.4
2017-01-22T08:19:13.063Z,28.4
2017-01-22T08:20:13.098Z,28.5
2017-01-22T08:21:14.545Z,28.5
2017-01-22T08:22:14.632Z,28.5
2017-01-22T08:23:15.229Z,28.5
2017-01-22T08:24:13.807Z,28.6
2017-01-22T08:25:13.203Z,28.6
2017-01-22T08:26:14.805Z,28.6
2017-01-22T08:27:13.317Z,28.6
2017-01-22T08:28:14.799Z,28.7
2017-01-22T08:29:13.359Z,28.7
2017-01-22T08:30:14.938Z,28.7
2017-01-22T08:31:14.921Z,28.8
2017-01-22T08:32:14.062Z,28.8
2017-01-22T08:33:13.612Z,28.8
2017-01-22T08:34:13.683Z,28.7
2017-01-22T08:35:13.754Z,28.8
2017-01-22T08:36:13.846Z,28.8
2017-01-22T08:37:15.500Z,28.8
2017-01-22T08:38:15.502Z,28.8
2017-01-22T08:39:14.042Z,28.8
2017-01-22T08:40:14.286Z,28.8
2017-01-22T08:41:16.459Z,28.8
2017-01-22T08:42:14.162Z,28.7
2017-01-22T08:43:14.297Z,28.7
2017-01-22T08:44:14.388Z,28.7
2017-01-22T08:45:15.955Z,28.7
2017-01-22T08:46:16.066Z,28.6
2017-01-22T08:47:16.684Z,28.6
2017-01-22T08:48:16.248Z,28.6
2017-01-22T08:49:16.378Z,28.6
2017-01-22T08:50:16.289Z,28.6
2017-01-22T08:51:14.748Z,28.6
2017-01-22T08:52:14.788Z,28.6
2017-01-22T08:53:15.206Z,28.6
2017-01-22T08:54:16.618Z,28.6
2017-01-22T08:55:15.055Z,28.5
2017-01-22T08:56:14.936Z,28.5
2017-01-22T08:57:16.674Z,28.5
2017-01-22T08:58:15.195Z,28.5
2017-01-22T08:59:15.078Z,28.5
2017-01-22T09:00:16.778Z,28.5
2017-01-22T09:01:16.842Z,28.5
2017-01-22T09:02:15.247Z,28.5
2017-01-22T09:03:15.259Z,28.5
2017-01-22T09:04:16.894Z,28.5
2017-01-22T09:05:16.999Z,28.5
2017-01-22T09:06:15.391Z,28.6
2017-01-22T09:07:17.923Z,28.6
2017-01-22T09:08:17.156Z,28.6
2017-01-22T09:09:15.645Z,28.6
2017-01-22T09:10:16.661Z,28.6
2017-01-22T09:11:17.982Z,28.5
2017-01-22T09:12:17.316Z,28.6
2017-01-22T09:13:15.934Z,28.6
2017-01-22T09:14:15.878Z,28.6
2017-01-22T09:15:15.884Z,28.6
2017-01-22T09:16:16.784Z,28.6
2017-01-22T09:17:17.731Z,28.6
2017-01-22T09:18:16.000Z,28.6
2017-01-22T09:19:16.201Z,28.6
2017-01-22T09:20:16.048Z,28.6
2017-01-22T09:21:17.784Z,28.6
2017-01-22T09:22:16.235Z,28.6
2017-01-22T09:23:17.904Z,28.5
2017-01-22T09:24:16.386Z,28.5
2017-01-22T09:25:16.941Z,28.5
2017-01-22T09:26:16.592Z,28.5
2017-01-22T09:27:18.082Z,28.5
2017-01-22T09:28:16.553Z,28.5
2017-01-22T09:29:17.298Z,28.5
2017-01-22T09:30:18.283Z,28.5
2017-01-22T09:31:19.018Z,28.5
2017-01-22T09:32:18.444Z,28.5
2017-01-22T09:33:18.398Z,28.5
2017-01-22T09:34:18.419Z,28.5
2017-01-22T09:35:16.836Z,28.5
2017-01-22T09:36:16.855Z,28.5
2017-01-22T09:37:18.488Z,28.5
2017-01-22T09:38:18.530Z,28.5
2017-01-22T09:39:17.025Z,28.5
2017-01-22T09:40:17.166Z,28.5
2017-01-22T09:41:18.012Z,28.5
2017-01-22T09:42:17.328Z,28.5
2017-01-22T09:43:18.045Z,28.5
2017-01-22T09:44:20.406Z,28.5
2017-01-22T09:45:17.416Z,28.5
2017-01-22T09:46:17.512Z,28.5
2017-01-22T09:47:19.110Z,28.5
2017-01-22T09:48:17.677Z,28.5
2017-01-22T09:49:19.375Z,28.6
2017-01-22T09:50:19.883Z,28.6
2017-01-22T09:51:20.156Z,28.5
2017-01-22T09:52:19.351Z,28.6
2017-01-22T09:53:17.749Z,28.6
2017-01-22T09:54:19.553Z,28.6
2017-01-22T09:55:19.512Z,28.6
2017-01-22T09:56:20.242Z,28.5
2017-01-22T09:57:19.746Z,28.6
2017-01-22T09:58:19.786Z,28.6
2017-01-22T09:59:19.756Z,28.6
2017-01-22T10:00:18.293Z,28.6
2017-01-22T10:01:18.257Z,28.6
2017-01-22T10:02:18.427Z,28.6
2017-01-22T10:03:18.891Z,28.6
2017-01-22T10:04:18.465Z,28.6
2017-01-22T10:05:18.593Z,28.6
2017-01-22T10:06:18.545Z,28.6
2017-01-22T10:07:19.332Z,28.6
2017-01-22T10:08:18.746Z,28.7
2017-01-22T10:09:18.625Z,28.6
2017-01-22T10:10:18.636Z,28.7
2017-01-22T10:11:20.491Z,28.7
2017-01-22T10:12:20.276Z,28.7
2017-01-22T10:13:18.762Z,28.7
2017-01-22T10:14:20.412Z,28.6
2017-01-22T10:15:21.230Z,28.7
2017-01-22T10:16:18.865Z,28.6
2017-01-22T10:17:19.004Z,28.6
2017-01-22T10:18:18.937Z,28.6
2017-01-22T10:19:19.343Z,28.6
2017-01-22T10:20:21.403Z,28.6
2017-01-22T10:21:19.088Z,28.7
2017-01-22T10:22:20.688Z,28.7
2017-01-22T10:23:20.746Z,28.6
2017-01-22T10:24:19.262Z,28.7
2017-01-22T10:25:19.297Z,28.7
2017-01-22T10:26:21.517Z,28.7
2017-01-22T10:27:21.065Z,28.7
2017-01-22T10:28:21.171Z,28.7
2017-01-22T10:29:19.667Z,28.7
2017-01-22T10:30:21.274Z,28.7
2017-01-22T10:31:21.283Z,28.7
2017-01-22T10:32:19.780Z,28.7
2017-01-22T10:33:19.723Z,28.7
2017-01-22T10:34:22.003Z,28.7
2017-01-22T10:35:21.411Z,28.7
2017-01-22T10:36:21.381Z,28.7
2017-01-22T10:37:21.574Z,28.7
2017-01-22T10:38:19.856Z,28.7
2017-01-22T10:39:21.538Z,28.7
2017-01-22T10:40:21.599Z,28.7
2017-01-22T10:41:21.622Z,28.7
2017-01-22T10:42:20.114Z,28.7
2017-01-22T10:43:20.738Z,28.7
2017-01-22T10:44:21.845Z,28.7
2017-01-22T10:45:21.427Z,28.7
2017-01-22T10:46:20.353Z,28.7
2017-01-22T10:47:20.321Z,28.7
2017-01-22T10:48:20.300Z,28.8
2017-01-22T10:49:21.382Z,28.8
2017-01-22T10:50:22.410Z,28.8
2017-01-22T10:51:22.281Z,28.8
2017-01-22T10:52:20.546Z,28.7
2017-01-22T10:53:20.613Z,28.8
2017-01-22T10:54:22.344Z,28.8
2017-01-22T10:55:20.768Z,28.8
2017-01-22T10:56:22.404Z,28.8
2017-01-22T10:57:20.963Z,28.8
2017-01-22T10:58:20.916Z,28.8
2017-01-22T10:59:21.088Z,28.8
2017-01-22T11:00:22.480Z,28.9
2017-01-22T11:01:21.105Z,28.9
2017-01-22T11:02:21.121Z,28.9
2017-01-22T11:03:22.566Z,29
2017-01-22T11:04:21.135Z,29
2017-01-22T11:05:23.259Z,29
2017-01-22T11:06:21.260Z,29.1
2017-01-22T11:07:22.735Z,29.1
2017-01-22T11:08:21.805Z,29.1
2017-01-22T11:09:22.854Z,29.2
2017-01-22T11:10:21.403Z,29.2
2017-01-22T11:11:21.477Z,29.2
2017-01-22T11:12:21.537Z,29.3
2017-01-22T11:13:23.167Z,29.3
2017-01-22T11:14:24.020Z,29.3
2017-01-22T11:15:23.190Z,29.3
2017-01-22T11:16:22.217Z,29.3
2017-01-22T11:17:21.636Z,29.4
2017-01-22T11:18:22.977Z,29.4
2017-01-22T11:19:21.640Z,29.4
2017-01-22T11:20:21.657Z,29.4
2017-01-22T11:21:23.308Z,29.4
2017-01-22T11:22:23.334Z,29.4
2017-01-22T11:23:23.408Z,29.4
2017-01-22T11:24:24.405Z,29.3
2017-01-22T11:25:23.689Z,29.3
2017-01-22T11:26:22.033Z,29.3
2017-01-22T11:27:22.016Z,29.3
2017-01-22T11:28:23.745Z,29.3
2017-01-22T11:29:23.850Z,29.3
2017-01-22T11:30:24.038Z,29.3
2017-01-22T11:31:23.837Z,29.3
2017-01-22T11:32:24.521Z,29.3
2017-01-22T11:33:24.057Z,29.3
2017-01-22T11:34:24.034Z,29.3
2017-01-22T11:35:22.583Z,29.3
2017-01-22T11:36:24.147Z,29.3
2017-01-22T11:37:24.269Z,29.3
2017-01-22T11:38:22.730Z,29.3
2017-01-22T11:39:25.306Z,29.3
2017-01-22T11:40:24.282Z,29.4
2017-01-22T11:41:22.829Z,29.3
2017-01-22T11:42:24.422Z,29.3
2017-01-22T11:43:23.564Z,29.3
2017-01-22T11:44:23.010Z,29.4
2017-01-22T11:45:23.130Z,29.4
2017-01-22T11:46:23.085Z,29.4
2017-01-22T11:47:25.406Z,29.4
2017-01-22T11:48:25.821Z,29.4
2017-01-22T11:49:26.463Z,29.4
2017-01-22T11:50:24.921Z,29.5
2017-01-22T11:51:25.072Z,29.5
2017-01-22T11:52:25.138Z,29.5
2017-01-22T11:53:23.614Z,29.5
2017-01-22T11:54:23.510Z,29.5
2017-01-22T11:55:24.830Z,29.5
2017-01-22T11:56:23.840Z,29.5
2017-01-22T11:57:25.512Z,29.5
2017-01-22T11:58:23.956Z,29.5
2017-01-22T11:59:24.027Z,29.5
2017-01-22T12:00:24.100Z,29.5
2017-01-22T12:01:25.761Z,29.5
2017-01-22T12:02:26.010Z,29.5
2017-01-22T12:03:24.250Z,29.5
2017-01-22T12:04:25.720Z,29.5
2017-01-22T12:05:25.816Z,29.5
2017-01-22T12:06:25.925Z,29.6
2017-01-22T12:07:24.286Z,29.6
2017-01-22T12:08:25.969Z,29.6
2017-01-22T12:09:24.406Z,29.6
2017-01-22T12:10:25.986Z,29.6
2017-01-22T12:11:25.217Z,29.6
2017-01-22T12:12:24.600Z,29.5
2017-01-22T12:13:26.134Z,29.6
2017-01-22T12:14:26.136Z,29.6
2017-01-22T12:15:26.848Z,29.6
2017-01-22T12:16:24.649Z,29.6
2017-01-22T12:17:26.239Z,29.6
2017-01-22T12:18:24.650Z,29.6
2017-01-22T12:19:24.742Z,29.6
2017-01-22T12:20:24.778Z,29.6
2017-01-22T12:21:25.518Z,29.6
2017-01-22T12:22:26.427Z,29.6
2017-01-22T12:23:26.488Z,29.6
2017-01-22T12:24:24.957Z,29.6
2017-01-22T12:25:27.285Z,29.6
2017-01-22T12:26:26.653Z,29.6
2017-01-22T12:27:25.052Z,29.6
2017-01-22T12:28:26.967Z,29.6
2017-01-22T12:29:25.262Z,29.6
2017-01-22T12:30:25.215Z,29.6
2017-01-22T12:31:26.974Z,29.6
2017-01-22T12:32:27.030Z,29.6
2017-01-22T12:33:25.463Z,29.6
2017-01-22T12:34:25.327Z,29.6
2017-01-22T12:35:26.153Z,29.6
2017-01-22T12:36:27.210Z,29.6
2017-01-22T12:37:25.689Z,29.6
2017-01-22T12:38:25.867Z,29.6
2017-01-22T12:39:25.749Z,29.6
2017-01-22T12:40:26.513Z,29.6
2017-01-22T12:41:26.366Z,29.6
2017-01-22T12:42:25.898Z,29.6
2017-01-22T12:43:27.751Z,29.6
2017-01-22T12:44:25.934Z,29.6
2017-01-22T12:45:25.958Z,29.6
2017-01-22T12:46:26.151Z,29.6
2017-01-22T12:47:28.243Z,29.6
2017-01-22T12:48:27.317Z,29.6
2017-01-22T12:49:26.079Z,29.6
2017-01-22T12:50:27.679Z,29.5
2017-01-22T12:51:27.836Z,29.6
2017-01-22T12:52:26.333Z,29.6
2017-01-22T12:53:27.932Z,29.6
2017-01-22T12:54:28.026Z,29.6
2017-01-22T12:55:28.670Z,29.6
2017-01-22T12:56:28.020Z,29.6
2017-01-22T12:57:26.371Z,29.6
2017-01-22T12:58:26.409Z,29.6
2017-01-22T12:59:27.139Z,29.6
2017-01-22T13:00:26.746Z,29.6
2017-01-22T13:01:27.188Z,29.6
2017-01-22T13:02:26.703Z,29.6
2017-01-22T13:03:28.356Z,29.6
2017-01-22T13:04:26.763Z,29.6
2017-01-22T13:05:28.945Z,29.6
2017-01-22T13:06:26.702Z,29.6
2017-01-22T13:07:28.514Z,29.7
2017-01-22T13:08:29.048Z,29.7
2017-01-22T13:09:28.541Z,29.6
2017-01-22T13:10:28.963Z,29.7
2017-01-22T13:11:28.576Z,29.7
2017-01-22T13:12:28.747Z,29.7
2017-01-22T13:13:27.215Z,29.7
2017-01-22T13:14:27.247Z,29.7
2017-01-22T13:15:28.671Z,29.7
2017-01-22T13:16:27.628Z,29.7
2017-01-22T13:17:27.132Z,29.7
2017-01-22T13:18:28.916Z,29.7
2017-01-22T13:19:27.911Z,29.7
2017-01-22T13:20:27.323Z,29.7
2017-01-22T13:21:29.563Z,29.7